sensor_id;sensor_type;location;lat;lon;timestamp;pressure;altitude;pressure_sealevel;temperature;humidity
15604;BME280;7902;49.042;9.092;2023-06-14T00:01:51;98597.41;;;22.29;36.84
15604;BME280;7902;49.042;9.092;2023-06-14T00:04:17;98599.84;;;22.24;36.97
15604;BME280;7902;49.042;9.092;2023-06-14T00:06:43;98596.56;;;22.22;36.87
15604;BME280;7902;49.042;9.092;2023-06-14T00:09:11;98596.16;;;22.25;37.17
15604;BME280;7902;49.042;9.092;2023-06-14T00:11:41;98608.44;;;22.13;37.72
15604;BME280;7902;49.042;9.092;2023-06-14T00:14:07;98600.63;;;22.18;37.17
15604;BME280;7902;49.042;9.092;2023-06-14T00:16:33;98605.94;;;22.11;37.14
15604;BME280;7902;49.042;9.092;2023-06-14T00:19:03;98602.25;;;22.12;37.35
15604;BME280;7902;49.042;9.092;2023-06-14T00:21:30;98600.78;;;22.10;36.86
15604;BME280;7902;49.042;9.092;2023-06-14T00:23:57;98597.25;;;22.03;37.33
15604;BME280;7902;49.042;9.092;2023-06-14T00:26:23;98598.09;;;22.03;37.48
15604;BME280;7902;49.042;9.092;2023-06-14T00:28:51;98601.56;;;22.04;37.22
15604;BME280;7902;49.042;9.092;2023-06-14T00:31:17;98604.22;;;22.04;37.21
15604;BME280;7902;49.042;9.092;2023-06-14T00:33:43;98596.00;;;21.99;37.52
15604;BME280;7902;49.042;9.092;2023-06-14T00:36:09;98596.75;;;21.93;37.58
15604;BME280;7902;49.042;9.092;2023-06-14T00:38:35;98598.88;;;21.97;37.52
15604;BME280;7902;49.042;9.092;2023-06-14T00:41:01;98589.91;;;21.90;37.87
15604;BME280;7902;49.042;9.092;2023-06-14T00:43:27;98588.72;;;21.93;37.58
15604;BME280;7902;49.042;9.092;2023-06-14T00:45:53;98591.84;;;21.96;37.37
15604;BME280;7902;49.042;9.092;2023-06-14T00:48:19;98588.28;;;21.89;37.73
15604;BME280;7902;49.042;9.092;2023-06-14T00:50:45;98592.34;;;21.85;37.85
15604;BME280;7902;49.042;9.092;2023-06-14T00:53:15;98581.22;;;21.81;38.14
15604;BME280;7902;49.042;9.092;2023-06-14T00:55:43;98589.00;;;21.76;38.16
15604;BME280;7902;49.042;9.092;2023-06-14T00:58:10;98584.25;;;21.72;38.14
15604;BME280;7902;49.042;9.092;2023-06-14T01:00:36;98588.75;;;21.71;38.22
15604;BME280;7902;49.042;9.092;2023-06-14T01:03:02;98593.28;;;21.71;37.89
15604;BME280;7902;49.042;9.092;2023-06-14T01:05:29;98592.47;;;21.70;38.14
15604;BME280;7902;49.042;9.092;2023-06-14T01:08:18;98592.25;;;21.72;37.85
15604;BME280;7902;49.042;9.092;2023-06-14T01:13:45;98586.69;;;21.67;37.88
15604;BME280;7902;49.042;9.092;2023-06-14T01:16:11;98595.53;;;21.67;37.79
15604;BME280;7902;49.042;9.092;2023-06-14T01:18:38;98588.84;;;21.57;37.90
15604;BME280;7902;49.042;9.092;2023-06-14T01:21:04;98594.25;;;21.63;38.27
15604;BME280;7902;49.042;9.092;2023-06-14T01:23:32;98588.66;;;21.58;38.10
15604;BME280;7902;49.042;9.092;2023-06-14T01:25:59;98588.84;;;21.57;37.88
15604;BME280;7902;49.042;9.092;2023-06-14T01:28:27;98595.34;;;21.48;38.19
15604;BME280;7902;49.042;9.092;2023-06-14T01:31:00;98606.69;;;21.50;38.27
15604;BME280;7902;49.042;9.092;2023-06-14T01:33:29;98596.41;;;21.47;37.74
15604;BME280;7902;49.042;9.092;2023-06-14T01:35:56;98605.44;;;21.45;38.16
15604;BME280;7902;49.042;9.092;2023-06-14T01:38:24;98598.41;;;21.44;38.21
15604;BME280;7902;49.042;9.092;2023-06-14T01:40:51;98601.09;;;21.44;38.30
15604;BME280;7902;49.042;9.092;2023-06-14T01:43:19;98610.75;;;21.45;38.33
15604;BME280;7902;49.042;9.092;2023-06-14T01:45:47;98611.13;;;21.42;38.15
15604;BME280;7902;49.042;9.092;2023-06-14T01:48:14;98607.84;;;21.40;38.44
15604;BME280;7902;49.042;9.092;2023-06-14T01:50:41;98610.69;;;21.39;38.91
15604;BME280;7902;49.042;9.092;2023-06-14T01:53:07;98609.00;;;21.31;39.25
15604;BME280;7902;49.042;9.092;2023-06-14T01:55:34;98610.97;;;21.23;39.34
15604;BME280;7902;49.042;9.092;2023-06-14T01:58:03;98614.94;;;21.12;39.12
15604;BME280;7902;49.042;9.092;2023-06-14T02:00:29;98609.50;;;21.06;39.93
15604;BME280;7902;49.042;9.092;2023-06-14T02:02:55;98606.97;;;20.97;39.67
15604;BME280;7902;49.042;9.092;2023-06-14T02:05:21;98608.63;;;20.98;39.77
15604;BME280;7902;49.042;9.092;2023-06-14T02:07:47;98604.13;;;20.99;39.47
15604;BME280;7902;49.042;9.092;2023-06-14T02:10:13;98609.00;;;20.95;40.04
15604;BME280;7902;49.042;9.092;2023-06-14T02:12:41;98613.97;;;20.98;40.06
15604;BME280;7902;49.042;9.092;2023-06-14T02:15:07;98610.09;;;21.01;39.41
15604;BME280;7902;49.042;9.092;2023-06-14T02:17:33;98604.56;;;21.02;39.73
15604;BME280;7902;49.042;9.092;2023-06-14T02:20:00;98615.63;;;20.99;39.70
15604;BME280;7902;49.042;9.092;2023-06-14T02:22:26;98611.47;;;20.97;39.72
15604;BME280;7902;49.042;9.092;2023-06-14T02:24:52;98614.78;;;20.99;39.13
15604;BME280;7902;49.042;9.092;2023-06-14T02:27:18;98613.97;;;20.98;39.33
15604;BME280;7902;49.042;9.092;2023-06-14T02:29:44;98613.63;;;20.87;40.05
15604;BME280;7902;49.042;9.092;2023-06-14T02:32:10;98613.00;;;20.85;39.73
15604;BME280;7902;49.042;9.092;2023-06-14T02:34:36;98615.28;;;20.88;39.84
15604;BME280;7902;49.042;9.092;2023-06-14T02:37:02;98620.53;;;20.81;39.88
15604;BME280;7902;49.042;9.092;2023-06-14T02:39:30;98616.16;;;20.74;40.49
15604;BME280;7902;49.042;9.092;2023-06-14T02:41:56;98624.16;;;20.74;40.72
15604;BME280;7902;49.042;9.092;2023-06-14T02:44:25;98619.19;;;20.71;40.20
15604;BME280;7902;49.042;9.092;2023-06-14T02:46:53;98607.88;;;20.69;40.30
15604;BME280;7902;49.042;9.092;2023-06-14T02:49:21;98616.00;;;20.61;40.97
15604;BME280;7902;49.042;9.092;2023-06-14T02:51:48;98619.22;;;20.56;40.54
15604;BME280;7902;49.042;9.092;2023-06-14T02:54:14;98617.56;;;20.55;40.55
15604;BME280;7902;49.042;9.092;2023-06-14T02:56:40;98621.34;;;20.46;40.94
15604;BME280;7902;49.042;9.092;2023-06-14T02:59:07;98618.84;;;20.44;41.53
15604;BME280;7902;49.042;9.092;2023-06-14T03:01:36;98626.84;;;20.44;41.30
15604;BME280;7902;49.042;9.092;2023-06-14T03:04:09;98624.38;;;20.43;41.44
15604;BME280;7902;49.042;9.092;2023-06-14T03:06:35;98616.13;;;20.38;41.14
15604;BME280;7902;49.042;9.092;2023-06-14T03:09:03;98619.84;;;20.29;41.35
15604;BME280;7902;49.042;9.092;2023-06-14T03:11:32;98618.03;;;20.29;41.30
15604;BME280;7902;49.042;9.092;2023-06-14T03:14:00;98615.53;;;20.28;41.79
15604;BME280;7902;49.042;9.092;2023-06-14T03:16:26;98623.34;;;20.29;41.77
15604;BME280;7902;49.042;9.092;2023-06-14T03:18:55;98626.38;;;20.26;41.33
15604;BME280;7902;49.042;9.092;2023-06-14T03:21:21;98628.13;;;20.19;41.95
15604;BME280;7902;49.042;9.092;2023-06-14T03:23:48;98624.09;;;20.23;41.70
15604;BME280;7902;49.042;9.092;2023-06-14T03:26:14;98625.25;;;20.21;41.82
15604;BME280;7902;49.042;9.092;2023-06-14T03:28:44;98633.75;;;20.24;41.81
15604;BME280;7902;49.042;9.092;2023-06-14T03:31:11;98634.34;;;20.11;42.37
15604;BME280;7902;49.042;9.092;2023-06-14T03:33:38;98642.34;;;20.11;41.70
15604;BME280;7902;49.042;9.092;2023-06-14T03:36:04;98636.84;;;20.13;41.74
15604;BME280;7902;49.042;9.092;2023-06-14T03:38:30;98634.47;;;20.18;41.88
15604;BME280;7902;49.042;9.092;2023-06-14T03:40:56;98647.69;;;20.11;41.82
15604;BME280;7902;49.042;9.092;2023-06-14T03:43:22;98640.44;;;20.05;41.89
15604;BME280;7902;49.042;9.092;2023-06-14T03:45:48;98647.41;;;20.06;41.88
15604;BME280;7902;49.042;9.092;2023-06-14T03:48:14;98648.59;;;20.04;42.35
15604;BME280;7902;49.042;9.092;2023-06-14T03:50:40;98653.28;;;20.02;42.62
15604;BME280;7902;49.042;9.092;2023-06-14T03:53:08;98651.28;;;20.04;42.60
15604;BME280;7902;49.042;9.092;2023-06-14T03:55:34;98658.16;;;19.98;42.69
15604;BME280;7902;49.042;9.092;2023-06-14T03:58:00;98663.13;;;20.01;42.50
15604;BME280;7902;49.042;9.092;2023-06-14T04:00:27;98666.06;;;20.06;42.31
15604;BME280;7902;49.042;9.092;2023-06-14T04:02:52;98666.56;;;20.10;42.80
15604;BME280;7902;49.042;9.092;2023-06-14T04:05:19;98670.56;;;20.06;42.70
15604;BME280;7902;49.042;9.092;2023-06-14T04:07:46;98678.09;;;20.02;42.70
15604;BME280;7902;49.042;9.092;2023-06-14T04:10:15;98673.06;;;20.07;42.71
15604;BME280;7902;49.042;9.092;2023-06-14T04:12:41;98675.88;;;20.06;42.24
15604;BME280;7902;49.042;9.092;2023-06-14T04:15:08;98676.56;;;20.08;42.55
15604;BME280;7902;49.042;9.092;2023-06-14T04:17:35;98676.25;;;20.03;42.78
15604;BME280;7902;49.042;9.092;2023-06-14T04:20:02;98682.16;;;20.13;42.30
15604;BME280;7902;49.042;9.092;2023-06-14T04:22:30;98679.50;;;20.13;42.48
15604;BME280;7902;49.042;9.092;2023-06-14T04:24:57;98688.88;;;20.09;42.35
15604;BME280;7902;49.042;9.092;2023-06-14T04:27:23;98682.88;;;20.07;42.25
15604;BME280;7902;49.042;9.092;2023-06-14T04:29:54;98696.41;;;20.05;42.27
15604;BME280;7902;49.042;9.092;2023-06-14T04:32:26;98695.88;;;20.10;42.52
15604;BME280;7902;49.042;9.092;2023-06-14T04:34:53;98707.53;;;20.09;43.00
15604;BME280;7902;49.042;9.092;2023-06-14T04:37:20;98705.16;;;20.14;42.90
15604;BME280;7902;49.042;9.092;2023-06-14T04:39:47;98708.81;;;20.13;42.66
15604;BME280;7902;49.042;9.092;2023-06-14T04:42:14;98711.50;;;20.13;42.61
15604;BME280;7902;49.042;9.092;2023-06-14T04:44:41;98707.06;;;20.20;42.33
15604;BME280;7902;49.042;9.092;2023-06-14T04:47:07;98706.28;;;20.20;42.32
15604;BME280;7902;49.042;9.092;2023-06-14T04:49:33;98715.91;;;20.21;42.58
15604;BME280;7902;49.042;9.092;2023-06-14T04:52:00;98714.34;;;20.26;42.42
15604;BME280;7902;49.042;9.092;2023-06-14T04:54:27;98717.69;;;20.28;42.84
15604;BME280;7902;49.042;9.092;2023-06-14T04:56:53;98721.66;;;20.32;42.89
15604;BME280;7902;49.042;9.092;2023-06-14T04:59:21;98722.50;;;20.33;42.96
15604;BME280;7902;49.042;9.092;2023-06-14T05:01:52;98721.56;;;20.40;42.58
15604;BME280;7902;49.042;9.092;2023-06-14T05:04:19;98734.63;;;20.35;42.63
15604;BME280;7902;49.042;9.092;2023-06-14T05:06:45;98719.19;;;20.45;42.97
15604;BME280;7902;49.042;9.092;2023-06-14T05:09:14;98731.97;;;20.35;42.90
15604;BME280;7902;49.042;9.092;2023-06-14T05:11:40;98730.56;;;20.39;43.27
15604;BME280;7902;49.042;9.092;2023-06-14T05:14:07;98729.84;;;20.45;43.10
15604;BME280;7902;49.042;9.092;2023-06-14T05:16:33;98724.41;;;20.39;43.12
15604;BME280;7902;49.042;9.092;2023-06-14T05:18:59;98730.41;;;20.41;43.20
15604;BME280;7902;49.042;9.092;2023-06-14T05:21:26;98724.91;;;20.42;43.14
15604;BME280;7902;49.042;9.092;2023-06-14T05:23:52;98723.41;;;20.54;42.81
15604;BME280;7902;49.042;9.092;2023-06-14T05:26:19;98731.44;;;20.54;42.92
15604;BME280;7902;49.042;9.092;2023-06-14T05:28:45;98734.94;;;20.70;42.72
15604;BME280;7902;49.042;9.092;2023-06-14T05:31:11;98731.72;;;20.74;43.03
15604;BME280;7902;49.042;9.092;2023-06-14T05:33:37;98739.81;;;20.81;42.78
15604;BME280;7902;49.042;9.092;2023-06-14T05:36:03;98735.94;;;20.83;42.79
15604;BME280;7902;49.042;9.092;2023-06-14T05:38:29;98740.34;;;20.91;42.60
15604;BME280;7902;49.042;9.092;2023-06-14T05:40:54;98739.22;;;21.00;42.83
15604;BME280;7902;49.042;9.092;2023-06-14T05:43:20;98745.41;;;20.86;43.16
15604;BME280;7902;49.042;9.092;2023-06-14T05:45:46;98743.09;;;21.12;42.84
15604;BME280;7902;49.042;9.092;2023-06-14T05:48:12;98754.16;;;20.80;43.38
15604;BME280;7902;49.042;9.092;2023-06-14T05:50:38;98749.38;;;20.90;43.35
15604;BME280;7902;49.042;9.092;2023-06-14T05:53:04;98743.09;;;20.97;42.65
15604;BME280;7902;49.042;9.092;2023-06-14T05:55:30;98746.59;;;21.27;41.98
15604;BME280;7902;49.042;9.092;2023-06-14T05:57:56;98747.78;;;20.95;42.95
15604;BME280;7902;49.042;9.092;2023-06-14T06:00:22;98749.00;;;21.22;41.52
15604;BME280;7902;49.042;9.092;2023-06-14T06:02:48;98744.69;;;21.42;41.80
15604;BME280;7902;49.042;9.092;2023-06-14T06:05:14;98743.59;;;21.73;41.13
15604;BME280;7902;49.042;9.092;2023-06-14T06:07:41;98749.25;;;21.27;41.94
15604;BME280;7902;49.042;9.092;2023-06-14T06:10:07;98751.34;;;21.47;42.21
15604;BME280;7902;49.042;9.092;2023-06-14T06:12:33;98759.69;;;21.22;42.12
15604;BME280;7902;49.042;9.092;2023-06-14T06:14:59;98754.34;;;21.43;41.82
15604;BME280;7902;49.042;9.092;2023-06-14T06:17:26;98753.41;;;21.15;43.06
15604;BME280;7902;49.042;9.092;2023-06-14T06:19:52;98755.94;;;21.38;42.15
15604;BME280;7902;49.042;9.092;2023-06-14T06:22:18;98747.31;;;21.36;42.15
15604;BME280;7902;49.042;9.092;2023-06-14T06:24:44;98756.50;;;21.33;41.87
15604;BME280;7902;49.042;9.092;2023-06-14T06:27:09;98759.84;;;21.57;41.26
15604;BME280;7902;49.042;9.092;2023-06-14T06:29:36;98764.47;;;21.48;41.54
15604;BME280;7902;49.042;9.092;2023-06-14T06:32:02;98761.41;;;21.66;41.63
15604;BME280;7902;49.042;9.092;2023-06-14T06:34:28;98761.78;;;21.84;41.54
15604;BME280;7902;49.042;9.092;2023-06-14T06:36:54;98761.00;;;21.69;41.07
15604;BME280;7902;49.042;9.092;2023-06-14T06:39:20;98755.03;;;21.67;40.94
15604;BME280;7902;49.042;9.092;2023-06-14T06:41:46;98759.00;;;21.35;41.98
15604;BME280;7902;49.042;9.092;2023-06-14T06:44:12;98765.72;;;21.67;41.21
15604;BME280;7902;49.042;9.092;2023-06-14T06:46:39;98776.03;;;21.91;40.95
15604;BME280;7902;49.042;9.092;2023-06-14T06:49:07;98768.16;;;21.83;41.16
15604;BME280;7902;49.042;9.092;2023-06-14T06:51:34;98775.06;;;21.77;41.06
15604;BME280;7902;49.042;9.092;2023-06-14T06:54:00;98769.41;;;21.87;40.97
15604;BME280;7902;49.042;9.092;2023-06-14T06:56:26;98774.81;;;21.72;41.29
15604;BME280;7902;49.042;9.092;2023-06-14T06:58:52;98774.16;;;22.06;40.64
15604;BME280;7902;49.042;9.092;2023-06-14T07:01:18;98783.59;;;21.66;41.66
15604;BME280;7902;49.042;9.092;2023-06-14T07:03:47;98787.19;;;22.16;41.06
15604;BME280;7902;49.042;9.092;2023-06-14T07:06:13;98788.81;;;22.38;40.82
15604;BME280;7902;49.042;9.092;2023-06-14T07:08:39;98785.88;;;22.26;40.78
15604;BME280;7902;49.042;9.092;2023-06-14T07:11:05;98792.53;;;21.95;41.43
15604;BME280;7902;49.042;9.092;2023-06-14T07:13:31;98788.28;;;22.21;41.11
15604;BME280;7902;49.042;9.092;2023-06-14T07:15:59;98791.56;;;22.45;40.69
15604;BME280;7902;49.042;9.092;2023-06-14T07:18:26;98796.06;;;22.16;41.23
15604;BME280;7902;49.042;9.092;2023-06-14T07:20:53;98798.41;;;22.54;40.65
15604;BME280;7902;49.042;9.092;2023-06-14T07:23:23;98797.06;;;22.64;40.30
15604;BME280;7902;49.042;9.092;2023-06-14T07:25:49;98803.84;;;22.67;40.51
15604;BME280;7902;49.042;9.092;2023-06-14T07:28:16;98793.84;;;22.48;40.84
15604;BME280;7902;49.042;9.092;2023-06-14T07:30:43;98804.03;;;22.38;41.16
15604;BME280;7902;49.042;9.092;2023-06-14T07:33:09;98801.03;;;22.47;41.18
15604;BME280;7902;49.042;9.092;2023-06-14T07:35:35;98812.16;;;22.51;40.68
15604;BME280;7902;49.042;9.092;2023-06-14T07:38:01;98812.66;;;22.61;41.25
15604;BME280;7902;49.042;9.092;2023-06-14T07:40:27;98803.59;;;22.83;40.62
15604;BME280;7902;49.042;9.092;2023-06-14T07:42:53;98810.03;;;22.67;40.69
15604;BME280;7902;49.042;9.092;2023-06-14T07:45:20;98809.88;;;22.97;40.33
15604;BME280;7902;49.042;9.092;2023-06-14T07:47:46;98810.72;;;23.04;39.93
15604;BME280;7902;49.042;9.092;2023-06-14T07:50:12;98827.19;;;23.01;39.86
15604;BME280;7902;49.042;9.092;2023-06-14T07:52:39;98813.25;;;22.84;40.36
15604;BME280;7902;49.042;9.092;2023-06-14T07:55:05;98816.50;;;23.07;39.65
15604;BME280;7902;49.042;9.092;2023-06-14T07:57:31;98819.34;;;22.99;40.00
15604;BME280;7902;49.042;9.092;2023-06-14T07:59:57;98824.41;;;23.22;39.64
15604;BME280;7902;49.042;9.092;2023-06-14T08:02:23;98814.44;;;23.09;39.72
15604;BME280;7902;49.042;9.092;2023-06-14T08:04:49;98818.72;;;23.38;39.41
15604;BME280;7902;49.042;9.092;2023-06-14T08:07:15;98815.53;;;23.22;39.61
15604;BME280;7902;49.042;9.092;2023-06-14T08:09:41;98813.59;;;23.43;39.04
15604;BME280;7902;49.042;9.092;2023-06-14T08:12:07;98818.25;;;23.28;39.15
15604;BME280;7902;49.042;9.092;2023-06-14T08:14:35;98817.59;;;23.54;38.99
15604;BME280;7902;49.042;9.092;2023-06-14T08:17:01;98812.50;;;23.72;38.35
15604;BME280;7902;49.042;9.092;2023-06-14T08:19:27;98817.22;;;23.70;38.65
15604;BME280;7902;49.042;9.092;2023-06-14T08:21:53;98816.59;;;23.27;39.15
15604;BME280;7902;49.042;9.092;2023-06-14T08:24:21;98821.13;;;23.74;38.32
15604;BME280;7902;49.042;9.092;2023-06-14T08:26:50;98814.31;;;23.58;39.16
15604;BME280;7902;49.042;9.092;2023-06-14T08:29:16;98818.47;;;23.68;38.66
15604;BME280;7902;49.042;9.092;2023-06-14T08:31:42;98812.25;;;23.74;38.34
15604;BME280;7902;49.042;9.092;2023-06-14T08:34:08;98809.19;;;23.83;38.34
15604;BME280;7902;49.042;9.092;2023-06-14T08:36:35;98811.66;;;23.78;38.25
15604;BME280;7902;49.042;9.092;2023-06-14T08:39:01;98817.38;;;23.55;38.45
15604;BME280;7902;49.042;9.092;2023-06-14T08:41:28;98826.13;;;23.77;38.30
15604;BME280;7902;49.042;9.092;2023-06-14T08:43:56;98821.78;;;23.76;38.11
15604;BME280;7902;49.042;9.092;2023-06-14T08:46:25;98818.28;;;23.89;38.42
15604;BME280;7902;49.042;9.092;2023-06-14T08:48:54;98820.16;;;23.95;38.05
15604;BME280;7902;49.042;9.092;2023-06-14T08:51:22;98822.16;;;23.67;38.23
15604;BME280;7902;49.042;9.092;2023-06-14T08:53:54;98815.22;;;23.98;37.84
15604;BME280;7902;49.042;9.092;2023-06-14T08:56:27;98824.91;;;24.06;37.57
15604;BME280;7902;49.042;9.092;2023-06-14T08:58:55;98821.81;;;24.02;37.12
15604;BME280;7902;49.042;9.092;2023-06-14T09:01:22;98820.84;;;24.17;37.37
15604;BME280;7902;49.042;9.092;2023-06-14T09:03:50;98821.44;;;24.05;37.55
15604;BME280;7902;49.042;9.092;2023-06-14T09:06:17;98819.00;;;24.17;37.00
15604;BME280;7902;49.042;9.092;2023-06-14T09:08:46;98820.47;;;24.33;37.11
15604;BME280;7902;49.042;9.092;2023-06-14T09:11:14;98813.63;;;24.30;37.15
15604;BME280;7902;49.042;9.092;2023-06-14T09:13:41;98815.69;;;24.35;37.56
15604;BME280;7902;49.042;9.092;2023-06-14T09:16:08;98818.16;;;24.30;37.54
15604;BME280;7902;49.042;9.092;2023-06-14T09:18:44;98816.72;;;24.54;36.80
15604;BME280;7902;49.042;9.092;2023-06-14T09:21:14;98813.66;;;24.43;37.24
15604;BME280;7902;49.042;9.092;2023-06-14T09:23:43;98805.78;;;24.48;36.99
15604;BME280;7902;49.042;9.092;2023-06-14T09:26:16;98817.78;;;24.66;36.93
15604;BME280;7902;49.042;9.092;2023-06-14T09:28:47;98817.94;;;24.77;36.82
15604;BME280;7902;49.042;9.092;2023-06-14T09:31:15;98825.00;;;24.65;36.81
15604;BME280;7902;49.042;9.092;2023-06-14T09:33:42;98822.69;;;24.82;36.62
15604;BME280;7902;49.042;9.092;2023-06-14T09:36:24;98826.84;;;24.91;36.45
15604;BME280;7902;49.042;9.092;2023-06-14T09:38:55;98816.91;;;24.91;36.59
15604;BME280;7902;49.042;9.092;2023-06-14T09:41:31;98829.75;;;24.89;36.51
15604;BME280;7902;49.042;9.092;2023-06-14T09:43:59;98830.97;;;24.80;36.11
15604;BME280;7902;49.042;9.092;2023-06-14T09:46:28;98829.53;;;24.91;36.42
15604;BME280;7902;49.042;9.092;2023-06-14T09:48:58;98836.34;;;24.94;36.16
15604;BME280;7902;49.042;9.092;2023-06-14T09:51:25;98834.25;;;24.82;35.80
15604;BME280;7902;49.042;9.092;2023-06-14T09:53:53;98834.25;;;25.02;36.01
15604;BME280;7902;49.042;9.092;2023-06-14T09:56:28;98834.66;;;25.19;35.68
15604;BME280;7902;49.042;9.092;2023-06-14T09:58:56;98830.50;;;25.10;35.84
15604;BME280;7902;49.042;9.092;2023-06-14T10:01:24;98826.78;;;25.17;35.45
15604;BME280;7902;49.042;9.092;2023-06-14T10:04:06;98818.69;;;25.30;34.82
15604;BME280;7902;49.042;9.092;2023-06-14T10:06:36;98828.41;;;25.25;34.33
15604;BME280;7902;49.042;9.092;2023-06-14T10:09:03;98820.94;;;25.33;33.26
15604;BME280;7902;49.042;9.092;2023-06-14T10:11:31;98817.59;;;25.45;33.83
15604;BME280;7902;49.042;9.092;2023-06-14T10:13:58;98819.91;;;25.34;33.75
15604;BME280;7902;49.042;9.092;2023-06-14T10:16:30;98820.19;;;25.13;32.94
15604;BME280;7902;49.042;9.092;2023-06-14T10:19:22;98822.19;;;25.38;32.88
15604;BME280;7902;49.042;9.092;2023-06-14T10:22:11;98819.91;;;25.34;33.46
15604;BME280;7902;49.042;9.092;2023-06-14T10:24:43;98829.19;;;25.39;33.71
15604;BME280;7902;49.042;9.092;2023-06-14T10:27:09;98824.44;;;25.47;32.60
15604;BME280;7902;49.042;9.092;2023-06-14T10:32:20;98815.63;;;25.71;32.12
15604;BME280;7902;49.042;9.092;2023-06-14T10:34:53;98825.88;;;25.43;31.85
15604;BME280;7902;49.042;9.092;2023-06-14T10:37:19;98813.44;;;25.55;32.47
15604;BME280;7902;49.042;9.092;2023-06-14T10:39:46;98810.94;;;25.60;33.10
15604;BME280;7902;49.042;9.092;2023-06-14T10:42:13;98806.97;;;25.69;32.82
15604;BME280;7902;49.042;9.092;2023-06-14T10:50:08;98807.72;;;25.83;32.41
15604;BME280;7902;49.042;9.092;2023-06-14T10:52:38;98810.25;;;25.71;32.28
15604;BME280;7902;49.042;9.092;2023-06-14T10:55:06;98819.91;;;25.86;32.39
15604;BME280;7902;49.042;9.092;2023-06-14T10:57:39;98795.66;;;25.54;31.91
15604;BME280;7902;49.042;9.092;2023-06-14T11:00:06;98808.28;;;25.92;32.28
15604;BME280;7902;49.042;9.092;2023-06-14T11:05:25;98808.44;;;26.03;31.64
15604;BME280;7902;49.042;9.092;2023-06-14T11:08:13;98809.03;;;26.05;31.69
15604;BME280;7902;49.042;9.092;2023-06-14T11:10:44;98818.28;;;25.85;31.43
15604;BME280;7902;49.042;9.092;2023-06-14T11:13:13;98807.84;;;25.95;31.56
15604;BME280;7902;49.042;9.092;2023-06-14T11:15:44;98816.63;;;25.84;30.93
15604;BME280;7902;49.042;9.092;2023-06-14T11:18:11;98808.31;;;25.85;30.96
15604;BME280;7902;49.042;9.092;2023-06-14T11:20:37;98813.09;;;25.83;30.49
15604;BME280;7902;49.042;9.092;2023-06-14T11:23:04;98801.25;;;25.91;31.49
15604;BME280;7902;49.042;9.092;2023-06-14T11:25:30;98813.22;;;25.95;30.12
15604;BME280;7902;49.042;9.092;2023-06-14T11:27:56;98804.88;;;25.71;30.32
15604;BME280;7902;49.042;9.092;2023-06-14T11:30:23;98805.41;;;25.87;31.02
15604;BME280;7902;49.042;9.092;2023-06-14T11:32:51;98797.19;;;26.13;30.24
15604;BME280;7902;49.042;9.092;2023-06-14T11:35:18;98800.91;;;26.12;30.63
15604;BME280;7902;49.042;9.092;2023-06-14T11:37:44;98799.00;;;25.88;31.09
15604;BME280;7902;49.042;9.092;2023-06-14T11:40:12;98801.13;;;26.10;30.66
15604;BME280;7902;49.042;9.092;2023-06-14T11:42:40;98804.44;;;26.12;31.53
15604;BME280;7902;49.042;9.092;2023-06-14T11:45:11;98801.38;;;26.34;30.81
15604;BME280;7902;49.042;9.092;2023-06-14T11:47:40;98805.84;;;26.46;30.62
15604;BME280;7902;49.042;9.092;2023-06-14T11:50:07;98806.28;;;26.43;31.18
15604;BME280;7902;49.042;9.092;2023-06-14T11:52:35;98811.78;;;26.30;31.09
15604;BME280;7902;49.042;9.092;2023-06-14T11:55:02;98801.84;;;26.31;30.75
15604;BME280;7902;49.042;9.092;2023-06-14T11:57:34;98802.47;;;26.76;30.73
15604;BME280;7902;49.042;9.092;2023-06-14T12:00:03;98795.84;;;26.53;30.09
15604;BME280;7902;49.042;9.092;2023-06-14T12:02:33;98796.66;;;26.54;30.21
15604;BME280;7902;49.042;9.092;2023-06-14T12:05:04;98794.06;;;26.65;30.28
15604;BME280;7902;49.042;9.092;2023-06-14T12:07:31;98795.09;;;26.89;30.04
15604;BME280;7902;49.042;9.092;2023-06-14T12:12:26;98789.06;;;27.12;29.74
15604;BME280;7902;49.042;9.092;2023-06-14T12:14:53;98796.84;;;27.20;30.12
15604;BME280;7902;49.042;9.092;2023-06-14T12:17:20;98791.47;;;27.20;29.47
15604;BME280;7902;49.042;9.092;2023-06-14T12:19:46;98796.91;;;27.14;29.83
15604;BME280;7902;49.042;9.092;2023-06-14T12:22:15;98795.34;;;27.24;30.22
15604;BME280;7902;49.042;9.092;2023-06-14T12:24:44;98787.28;;;27.06;29.90
15604;BME280;7902;49.042;9.092;2023-06-14T12:27:11;98782.94;;;26.80;30.15
15604;BME280;7902;49.042;9.092;2023-06-14T12:29:42;98790.03;;;26.99;30.18
15604;BME280;7902;49.042;9.092;2023-06-14T12:32:11;98795.56;;;26.86;29.71
15604;BME280;7902;49.042;9.092;2023-06-14T12:34:37;98792.22;;;26.84;30.36
15604;BME280;7902;49.042;9.092;2023-06-14T12:37:03;98793.78;;;26.74;29.16
15604;BME280;7902;49.042;9.092;2023-06-14T12:39:30;98782.09;;;27.04;29.94
15604;BME280;7902;49.042;9.092;2023-06-14T12:41:59;98787.72;;;27.21;29.66
15604;BME280;7902;49.042;9.092;2023-06-14T12:44:25;98783.66;;;27.30;29.57
15604;BME280;7902;49.042;9.092;2023-06-14T12:46:51;98772.94;;;27.42;29.05
15604;BME280;7902;49.042;9.092;2023-06-14T12:49:18;98774.56;;;27.61;29.15
15604;BME280;7902;49.042;9.092;2023-06-14T12:51:45;98779.50;;;27.46;29.47
15604;BME280;7902;49.042;9.092;2023-06-14T12:54:11;98787.69;;;27.58;29.85
15604;BME280;7902;49.042;9.092;2023-06-14T12:56:38;98787.50;;;27.71;29.59
15604;BME280;7902;49.042;9.092;2023-06-14T12:59:04;98790.41;;;27.58;29.97
15604;BME280;7902;49.042;9.092;2023-06-14T13:01:31;98790.41;;;27.58;29.62
15604;BME280;7902;49.042;9.092;2023-06-14T13:03:57;98785.88;;;27.70;29.57
15604;BME280;7902;49.042;9.092;2023-06-14T13:06:23;98789.16;;;27.72;29.24
15604;BME280;7902;49.042;9.092;2023-06-14T13:08:50;98784.66;;;27.54;28.38
15604;BME280;7902;49.042;9.092;2023-06-14T13:11:16;98787.84;;;27.63;28.85
15604;BME280;7902;49.042;9.092;2023-06-14T13:13:42;98788.97;;;27.85;29.63
15604;BME280;7902;49.042;9.092;2023-06-14T13:16:07;98796.59;;;27.88;29.17
15604;BME280;7902;49.042;9.092;2023-06-14T13:18:33;98793.13;;;27.99;29.03
15604;BME280;7902;49.042;9.092;2023-06-14T13:21:00;98783.59;;;28.26;27.95
15604;BME280;7902;49.042;9.092;2023-06-14T13:23:26;98784.31;;;28.45;28.67
15604;BME280;7902;49.042;9.092;2023-06-14T13:25:52;98793.34;;;28.27;28.90
15604;BME280;7902;49.042;9.092;2023-06-14T13:28:18;98790.28;;;28.24;28.55